createdAt,value
2023-04-14T00:00:39.801Z,8.7
2023-04-14T00:05:39.798Z,8.6
2023-04-14T00:15:39.807Z,8.7
2023-04-14T00:25:39.801Z,8.6
2023-04-14T00:45:39.805Z,8.7
2023-04-14T00:55:39.818Z,8.6
2023-04-14T01:00:39.834Z,8.7
2023-04-14T01:10:39.843Z,8.7
2023-04-14T01:20:39.825Z,8.7
2023-04-14T01:30:39.832Z,8.7
2023-04-14T01:35:39.822Z,8.7
2023-04-14T01:45:39.870Z,8.7
2023-04-14T02:05:39.838Z,8.7
2023-04-14T02:15:39.839Z,8.7
2023-04-14T02:20:39.843Z,8.7
2023-04-14T02:25:39.836Z,8.8
2023-04-14T02:35:39.861Z,8.7
2023-04-14T02:40:39.846Z,8.8
2023-04-14T02:50:39.836Z,8.8
2023-04-14T02:55:39.840Z,8.8
2023-04-14T03:00:39.851Z,8.8
2023-04-14T03:20:39.865Z,8.8
2023-04-14T03:30:39.841Z,8.8
2023-04-14T03:35:39.867Z,8.7
2023-04-14T03:45:39.851Z,8.8
2023-04-14T03:50:39.863Z,8.8
2023-04-14T03:55:39.872Z,8.8
2023-04-14T04:05:39.881Z,8.8
2023-04-14T04:15:39.878Z,8.8
2023-04-14T04:40:39.915Z,8.9
2023-04-14T04:50:39.888Z,8.9
2023-04-14T04:55:39.877Z,8.9
2023-04-14T05:00:39.934Z,8.9
2023-04-14T05:10:39.901Z,8.9
2023-04-14T05:20:39.895Z,8.9
2023-04-14T05:25:39.915Z,8.9
2023-04-14T05:35:39.920Z,8.9
2023-04-14T06:00:39.915Z,8.9
2023-04-14T06:05:39.920Z,8.9
2023-04-14T06:15:39.950Z,8.9
2023-04-14T06:20:39.934Z,8.9
2023-04-14T06:30:39.915Z,8.9
2023-04-14T06:35:39.936Z,8.9
2023-04-14T06:45:39.981Z,8.9
2023-04-14T06:50:40.304Z,8.9
2023-04-14T06:55:39.945Z,8.9
2023-04-14T07:15:39.957Z,8.9
2023-04-14T07:20:39.954Z,8.8
2023-04-14T07:30:39.944Z,8.8
2023-04-14T07:35:45.683Z,8.8
2023-04-14T07:45:39.951Z,8.8
2023-04-14T07:55:39.968Z,8.8
2023-04-14T08:05:39.992Z,8.8
2023-04-14T08:15:39.953Z,8.7
2023-04-14T08:45:40.031Z,8.8
2023-04-14T09:45:39.991Z,8.9
2023-04-14T09:50:39.999Z,8.9
2023-04-14T14:05:40.078Z,9.8
2023-04-14T14:20:40.064Z,9.7
2023-04-14T14:25:40.074Z,9.7
2023-04-14T14:35:40.106Z,9.9
2023-04-14T14:40:40.091Z,9.8
2023-04-14T14:50:40.093Z,9.9
2023-04-14T15:00:40.025Z,10
2023-04-14T15:05:40.022Z,10
2023-04-14T15:10:40.051Z,10
2023-04-14T15:20:40.074Z,10
2023-04-14T15:40:40.151Z,10.1
2023-04-14T15:45:40.142Z,10.1
2023-04-14T15:55:40.100Z,10.1
2023-04-14T16:00:40.129Z,10.1
2023-04-14T16:10:40.106Z,10.2
2023-04-14T16:15:40.169Z,10.1
2023-04-14T16:20:40.134Z,10.1
2023-04-14T16:30:40.378Z,10.1
2023-04-14T16:35:40.165Z,10.1
2023-04-14T17:00:40.142Z,10.2
2023-04-14T17:10:40.170Z,10.2
2023-04-14T17:20:40.108Z,10.3
2023-04-14T17:25:40.108Z,10.2
2023-04-14T17:30:40.112Z,10.1
2023-04-14T17:35:40.129Z,10.2
2023-04-14T17:45:40.238Z,10.2
2023-04-14T17:50:40.137Z,10.3
2023-04-14T17:55:40.139Z,10.2
2023-04-14T18:15:40.144Z,10.3
2023-04-14T18:30:40.176Z,10.2
2023-04-14T18:35:40.150Z,10.1
2023-04-14T18:45:40.149Z,10
2023-04-14T18:55:44.987Z,10.1
2023-04-14T19:05:40.161Z,10.1
2023-04-14T19:15:40.160Z,10.1
2023-04-14T19:35:40.169Z,10.1
2023-04-14T19:40:40.156Z,10.1
2023-04-14T19:45:40.136Z,10.1
2023-04-14T19:50:40.150Z,10.1
2023-04-14T20:00:40.136Z,10
2023-04-14T20:05:40.156Z,10
